sensor_id;sensor_type;location;lat;lon;timestamp;P1;durP1;ratioP1;P2;durP2;ratioP2
40981;SDS011;26708;50.304;19.028;2022-09-09T00:02:49;5.22;;;2.83;;
40981;SDS011;26708;50.304;19.028;2022-09-09T00:06:25;4.32;;;2.60;;
40981;SDS011;26708;50.304;19.028;2022-09-09T00:09:31;3.05;;;2.63;;
40981;SDS011;26708;50.304;19.028;2022-09-09T00:19:24;5.28;;;2.80;;
40981;SDS011;26708;50.304;19.028;2022-09-09T00:22:54;6.30;;;3.50;;
40981;SDS011;26708;50.304;19.028;2022-09-09T00:26:32;4.97;;;3.67;;
40981;SDS011;26708;50.304;19.028;2022-09-09T00:29:43;5.72;;;3.60;;
40981;SDS011;26708;50.304;19.028;2022-09-09T00:32:58;5.38;;;3.33;;
40981;SDS011;26708;50.304;19.028;2022-09-09T00:36:01;5.75;;;3.90;;
40981;SDS011;26708;50.304;19.028;2022-09-09T00:39:04;6.82;;;3.72;;
40981;SDS011;26708;50.304;19.028;2022-09-09T00:42:13;8.63;;;4.15;;
40981;SDS011;26708;50.304;19.028;2022-09-09T00:48:33;8.32;;;4.47;;
40981;SDS011;26708;50.304;19.028;2022-09-09T00:55:20;8.48;;;4.70;;
40981;SDS011;26708;50.304;19.028;2022-09-09T00:58:23;9.65;;;5.20;;
40981;SDS011;26708;50.304;19.028;2022-09-09T01:01:23;11.02;;;5.60;;
40981;SDS011;26708;50.304;19.028;2022-09-09T01:04:28;9.45;;;6.32;;
40981;SDS011;26708;50.304;19.028;2022-09-09T01:07:34;8.95;;;5.75;;
40981;SDS011;26708;50.304;19.028;2022-09-09T01:10:37;8.10;;;5.60;;
40981;SDS011;26708;50.304;19.028;2022-09-09T01:13:49;8.95;;;6.55;;
40981;SDS011;26708;50.304;19.028;2022-09-09T01:17:13;10.07;;;6.53;;
40981;SDS011;26708;50.304;19.028;2022-09-09T01:23:54;9.27;;;7.10;;
40981;SDS011;26708;50.304;19.028;2022-09-09T01:27:44;11.32;;;7.07;;
40981;SDS011;26708;50.304;19.028;2022-09-09T01:30:51;7.85;;;6.13;;
40981;SDS011;26708;50.304;19.028;2022-09-09T01:33:55;9.23;;;6.77;;
40981;SDS011;26708;50.304;19.028;2022-09-09T01:36:59;13.52;;;7.15;;
40981;SDS011;26708;50.304;19.028;2022-09-09T01:40:11;13.43;;;6.20;;
40981;SDS011;26708;50.304;19.028;2022-09-09T01:43:13;9.82;;;7.28;;
40981;SDS011;26708;50.304;19.028;2022-09-09T01:46:15;9.15;;;6.10;;
40981;SDS011;26708;50.304;19.028;2022-09-09T01:49:18;7.75;;;6.20;;
40981;SDS011;26708;50.304;19.028;2022-09-09T01:52:20;10.48;;;6.40;;
40981;SDS011;26708;50.304;19.028;2022-09-09T01:55:33;9.35;;;6.78;;
40981;SDS011;26708;50.304;19.028;2022-09-09T02:09:27;11.93;;;7.85;;
40981;SDS011;26708;50.304;19.028;2022-09-09T02:12:33;11.50;;;8.10;;
40981;SDS011;26708;50.304;19.028;2022-09-09T02:22:30;11.13;;;7.80;;
40981;SDS011;26708;50.304;19.028;2022-09-09T02:25:35;10.48;;;7.43;;
40981;SDS011;26708;50.304;19.028;2022-09-09T02:28:48;10.73;;;7.45;;
40981;SDS011;26708;50.304;19.028;2022-09-09T02:31:51;9.80;;;6.50;;
40981;SDS011;26708;50.304;19.028;2022-09-09T02:35:00;11.45;;;6.75;;
40981;SDS011;26708;50.304;19.028;2022-09-09T02:38:11;10.18;;;7.35;;
40981;SDS011;26708;50.304;19.028;2022-09-09T02:41:38;8.20;;;6.65;;
40981;SDS011;26708;50.304;19.028;2022-09-09T02:44:40;14.27;;;6.70;;
40981;SDS011;26708;50.304;19.028;2022-09-09T02:51:32;8.88;;;6.95;;
40981;SDS011;26708;50.304;19.028;2022-09-09T02:54:40;11.10;;;8.52;;
40981;SDS011;26708;50.304;19.028;2022-09-09T02:57:45;8.15;;;6.80;;
40981;SDS011;26708;50.304;19.028;2022-09-09T03:00:49;7.32;;;6.50;;
40981;SDS011;26708;50.304;19.028;2022-09-09T03:03:51;10.07;;;5.93;;
40981;SDS011;26708;50.304;19.028;2022-09-09T03:06:52;9.23;;;6.10;;
40981;SDS011;26708;50.304;19.028;2022-09-09T03:09:55;15.43;;;6.88;;
40981;SDS011;26708;50.304;19.028;2022-09-09T03:12:58;10.32;;;6.30;;
40981;SDS011;26708;50.304;19.028;2022-09-09T03:16:01;8.32;;;6.45;;
40981;SDS011;26708;50.304;19.028;2022-09-09T03:19:07;9.30;;;5.90;;
40981;SDS011;26708;50.304;19.028;2022-09-09T03:22:09;9.75;;;6.63;;
40981;SDS011;26708;50.304;19.028;2022-09-09T03:25:13;9.35;;;6.28;;
40981;SDS011;26708;50.304;19.028;2022-09-09T03:28:14;9.65;;;6.93;;
40981;SDS011;26708;50.304;19.028;2022-09-09T03:31:16;8.18;;;6.20;;
40981;SDS011;26708;50.304;19.028;2022-09-09T03:34:18;13.23;;;7.03;;
40981;SDS011;26708;50.304;19.028;2022-09-09T03:37:19;10.13;;;6.28;;
40981;SDS011;26708;50.304;19.028;2022-09-09T03:40:22;9.02;;;6.68;;
40981;SDS011;26708;50.304;19.028;2022-09-09T03:43:24;12.93;;;6.85;;
40981;SDS011;26708;50.304;19.028;2022-09-09T03:46:27;8.93;;;5.93;;
40981;SDS011;26708;50.304;19.028;2022-09-09T03:49:28;11.48;;;6.63;;
40981;SDS011;26708;50.304;19.028;2022-09-09T03:52:30;9.82;;;6.68;;
40981;SDS011;26708;50.304;19.028;2022-09-09T03:55:31;11.43;;;6.53;;
40981;SDS011;26708;50.304;19.028;2022-09-09T03:58:33;12.30;;;6.47;;
40981;SDS011;26708;50.304;19.028;2022-09-09T04:01:39;9.52;;;6.72;;
40981;SDS011;26708;50.304;19.028;2022-09-09T04:04:40;8.55;;;6.50;;
40981;SDS011;26708;50.304;19.028;2022-09-09T04:07:41;9.50;;;6.72;;
40981;SDS011;26708;50.304;19.028;2022-09-09T04:10:42;8.93;;;6.03;;
40981;SDS011;26708;50.304;19.028;2022-09-09T04:16:48;12.45;;;8.65;;
40981;SDS011;26708;50.304;19.028;2022-09-09T04:19:49;13.95;;;7.50;;
40981;SDS011;26708;50.304;19.028;2022-09-09T04:22:50;10.77;;;7.57;;
40981;SDS011;26708;50.304;19.028;2022-09-09T04:25:52;12.18;;;7.35;;
40981;SDS011;26708;50.304;19.028;2022-09-09T04:28:54;12.00;;;7.57;;
40981;SDS011;26708;50.304;19.028;2022-09-09T04:31:57;11.95;;;7.15;;
40981;SDS011;26708;50.304;19.028;2022-09-09T04:34:57;10.57;;;7.53;;
40981;SDS011;26708;50.304;19.028;2022-09-09T04:37:58;13.50;;;7.30;;
40981;SDS011;26708;50.304;19.028;2022-09-09T04:41:01;12.45;;;7.30;;
40981;SDS011;26708;50.304;19.028;2022-09-09T04:44:02;9.85;;;6.90;;
40981;SDS011;26708;50.304;19.028;2022-09-09T04:47:04;11.45;;;6.43;;
40981;SDS011;26708;50.304;19.028;2022-09-09T04:50:06;8.77;;;7.10;;
40981;SDS011;26708;50.304;19.028;2022-09-09T04:53:08;10.30;;;6.30;;
40981;SDS011;26708;50.304;19.028;2022-09-09T04:56:12;9.48;;;6.68;;
40981;SDS011;26708;50.304;19.028;2022-09-09T04:59:19;9.32;;;6.75;;
40981;SDS011;26708;50.304;19.028;2022-09-09T05:02:25;12.07;;;6.30;;
40981;SDS011;26708;50.304;19.028;2022-09-09T05:05:26;10.35;;;7.45;;
40981;SDS011;26708;50.304;19.028;2022-09-09T05:08:28;9.18;;;6.90;;
40981;SDS011;26708;50.304;19.028;2022-09-09T05:11:30;8.90;;;6.07;;
40981;SDS011;26708;50.304;19.028;2022-09-09T05:14:40;14.88;;;7.32;;
40981;SDS011;26708;50.304;19.028;2022-09-09T05:17:42;14.50;;;7.38;;
40981;SDS011;26708;50.304;19.028;2022-09-09T05:20:44;15.02;;;9.30;;
40981;SDS011;26708;50.304;19.028;2022-09-09T05:23:45;11.50;;;8.40;;
40981;SDS011;26708;50.304;19.028;2022-09-09T05:26:47;13.15;;;9.43;;
40981;SDS011;26708;50.304;19.028;2022-09-09T05:29:55;17.75;;;10.25;;
40981;SDS011;26708;50.304;19.028;2022-09-09T05:33:00;14.27;;;9.20;;
40981;SDS011;26708;50.304;19.028;2022-09-09T05:36:03;14.32;;;8.25;;
40981;SDS011;26708;50.304;19.028;2022-09-09T05:39:06;12.77;;;7.70;;
40981;SDS011;26708;50.304;19.028;2022-09-09T05:42:08;9.73;;;7.10;;
40981;SDS011;26708;50.304;19.028;2022-09-09T05:45:09;9.90;;;6.18;;
40981;SDS011;26708;50.304;19.028;2022-09-09T05:48:11;11.40;;;6.40;;
40981;SDS011;26708;50.304;19.028;2022-09-09T05:51:12;10.38;;;5.72;;
40981;SDS011;26708;50.304;19.028;2022-09-09T05:54:18;9.77;;;6.07;;
40981;SDS011;26708;50.304;19.028;2022-09-09T05:57:22;5.70;;;4.97;;
40981;SDS011;26708;50.304;19.028;2022-09-09T06:00:24;8.15;;;5.50;;
40981;SDS011;26708;50.304;19.028;2022-09-09T06:03:27;8.15;;;4.90;;
40981;SDS011;26708;50.304;19.028;2022-09-09T06:06:30;8.40;;;4.85;;
40981;SDS011;26708;50.304;19.028;2022-09-09T06:09:37;9.27;;;5.15;;
40981;SDS011;26708;50.304;19.028;2022-09-09T06:12:38;6.22;;;4.80;;
40981;SDS011;26708;50.304;19.028;2022-09-09T06:15:48;6.38;;;4.85;;
40981;SDS011;26708;50.304;19.028;2022-09-09T06:18:51;8.77;;;4.28;;
40981;SDS011;26708;50.304;19.028;2022-09-09T06:21:55;7.40;;;4.73;;
40981;SDS011;26708;50.304;19.028;2022-09-09T06:24:56;6.70;;;4.07;;
40981;SDS011;26708;50.304;19.028;2022-09-09T06:27:57;5.18;;;3.92;;
40981;SDS011;26708;50.304;19.028;2022-09-09T06:30:58;8.23;;;3.88;;
40981;SDS011;26708;50.304;19.028;2022-09-09T06:34:10;7.18;;;4.03;;
40981;SDS011;26708;50.304;19.028;2022-09-09T06:37:15;5.28;;;4.00;;
40981;SDS011;26708;50.304;19.028;2022-09-09T06:40:21;6.85;;;3.67;;
40981;SDS011;26708;50.304;19.028;2022-09-09T06:43:22;6.38;;;3.60;;
40981;SDS011;26708;50.304;19.028;2022-09-09T06:46:26;14.65;;;3.10;;
40981;SDS011;26708;50.304;19.028;2022-09-09T06:49:29;7.55;;;3.47;;
40981;SDS011;26708;50.304;19.028;2022-09-09T06:52:29;7.35;;;2.85;;
40981;SDS011;26708;50.304;19.028;2022-09-09T06:55:31;5.82;;;3.00;;
40981;SDS011;26708;50.304;19.028;2022-09-09T06:58:32;5.15;;;3.50;;
40981;SDS011;26708;50.304;19.028;2022-09-09T07:01:39;5.20;;;2.90;;
40981;SDS011;26708;50.304;19.028;2022-09-09T07:04:44;6.80;;;3.03;;
40981;SDS011;26708;50.304;19.028;2022-09-09T07:07:45;6.43;;;3.22;;
40981;SDS011;26708;50.304;19.028;2022-09-09T07:10:48;12.10;;;5.25;;
40981;SDS011;26708;50.304;19.028;2022-09-09T07:13:50;10.23;;;5.43;;
40981;SDS011;26708;50.304;19.028;2022-09-09T07:16:50;8.93;;;5.35;;
40981;SDS011;26708;50.304;19.028;2022-09-09T07:19:52;6.80;;;4.53;;
40981;SDS011;26708;50.304;19.028;2022-09-09T07:26:02;8.43;;;5.17;;
40981;SDS011;26708;50.304;19.028;2022-09-09T07:29:08;10.68;;;5.45;;
40981;SDS011;26708;50.304;19.028;2022-09-09T07:32:09;6.32;;;4.45;;
40981;SDS011;26708;50.304;19.028;2022-09-09T07:35:12;7.65;;;4.65;;
40981;SDS011;26708;50.304;19.028;2022-09-09T07:38:13;8.52;;;4.28;;
40981;SDS011;26708;50.304;19.028;2022-09-09T07:41:17;6.30;;;3.88;;
40981;SDS011;26708;50.304;19.028;2022-09-09T07:44:38;6.93;;;4.18;;
40981;SDS011;26708;50.304;19.028;2022-09-09T07:47:47;7.65;;;4.43;;
40981;SDS011;26708;50.304;19.028;2022-09-09T07:50:49;7.13;;;4.22;;
40981;SDS011;26708;50.304;19.028;2022-09-09T07:53:54;9.65;;;4.97;;
40981;SDS011;26708;50.304;19.028;2022-09-09T07:57:00;6.43;;;5.00;;
40981;SDS011;26708;50.304;19.028;2022-09-09T08:00:17;6.18;;;3.95;;
40981;SDS011;26708;50.304;19.028;2022-09-09T08:03:25;8.68;;;4.13;;
40981;SDS011;26708;50.304;19.028;2022-09-09T08:06:26;6.53;;;4.57;;
40981;SDS011;26708;50.304;19.028;2022-09-09T08:09:29;7.45;;;4.28;;
40981;SDS011;26708;50.304;19.028;2022-09-09T08:12:38;7.07;;;4.00;;
40981;SDS011;26708;50.304;19.028;2022-09-09T08:15:40;7.50;;;4.13;;
40981;SDS011;26708;50.304;19.028;2022-09-09T08:18:43;6.65;;;4.43;;
40981;SDS011;26708;50.304;19.028;2022-09-09T08:21:45;12.55;;;5.13;;
40981;SDS011;26708;50.304;19.028;2022-09-09T08:24:46;9.45;;;5.68;;
40981;SDS011;26708;50.304;19.028;2022-09-09T08:27:48;9.50;;;5.13;;
40981;SDS011;26708;50.304;19.028;2022-09-09T08:30:49;11.60;;;5.90;;
40981;SDS011;26708;50.304;19.028;2022-09-09T08:33:51;8.40;;;5.47;;
40981;SDS011;26708;50.304;19.028;2022-09-09T08:36:52;9.13;;;4.32;;
40981;SDS011;26708;50.304;19.028;2022-09-09T08:39:59;5.45;;;3.60;;
40981;SDS011;26708;50.304;19.028;2022-09-09T08:43:07;5.72;;;3.50;;
40981;SDS011;26708;50.304;19.028;2022-09-09T08:46:12;8.55;;;3.80;;
40981;SDS011;26708;50.304;19.028;2022-09-09T08:53:19;6.55;;;2.78;;
40981;SDS011;26708;50.304;19.028;2022-09-09T08:56:25;5.10;;;3.58;;
40981;SDS011;26708;50.304;19.028;2022-09-09T08:59:31;7.20;;;4.25;;
40981;SDS011;26708;50.304;19.028;2022-09-09T09:06:01;8.50;;;3.65;;
40981;SDS011;26708;50.304;19.028;2022-09-09T09:12:26;4.20;;;1.90;;
40981;SDS011;26708;50.304;19.028;2022-09-09T09:15:33;9.82;;;2.20;;
40981;SDS011;26708;50.304;19.028;2022-09-09T09:18:39;6.53;;;1.90;;
40981;SDS011;26708;50.304;19.028;2022-09-09T09:31:27;7.38;;;1.83;;
40981;SDS011;26708;50.304;19.028;2022-09-09T09:34:29;3.90;;;1.83;;
40981;SDS011;26708;50.304;19.028;2022-09-09T09:37:34;4.00;;;1.77;;
40981;SDS011;26708;50.304;19.028;2022-09-09T09:40:47;4.47;;;1.77;;
40981;SDS011;26708;50.304;19.028;2022-09-09T09:43:53;3.40;;;1.20;;
40981;SDS011;26708;50.304;19.028;2022-09-09T09:54:14;2.50;;;1.20;;
40981;SDS011;26708;50.304;19.028;2022-09-09T09:57:28;4.95;;;1.70;;
40981;SDS011;26708;50.304;19.028;2022-09-09T10:00:33;2.50;;;1.23;;
40981;SDS011;26708;50.304;19.028;2022-09-09T10:03:50;4.53;;;1.40;;
40981;SDS011;26708;50.304;19.028;2022-09-09T10:07:09;3.42;;;1.30;;
40981;SDS011;26708;50.304;19.028;2022-09-09T10:10:13;4.65;;;1.27;;
40981;SDS011;26708;50.304;19.028;2022-09-09T10:13:27;2.83;;;0.98;;
40981;SDS011;26708;50.304;19.028;2022-09-09T10:30:24;2.92;;;1.35;;
40981;SDS011;26708;50.304;19.028;2022-09-09T10:34:02;4.20;;;1.40;;
40981;SDS011;26708;50.304;19.028;2022-09-09T10:44:17;2.20;;;1.40;;
40981;SDS011;26708;50.304;19.028;2022-09-09T10:57:26;1.70;;;0.90;;
40981;SDS011;26708;50.304;19.028;2022-09-09T11:00:42;3.15;;;1.10;;
40981;SDS011;26708;50.304;19.028;2022-09-09T11:03:49;2.72;;;1.25;;
40981;SDS011;26708;50.304;19.028;2022-09-09T11:06:55;3.33;;;1.00;;
40981;SDS011;26708;50.304;19.028;2022-09-09T11:09:59;2.20;;;1.13;;
40981;SDS011;26708;50.304;19.028;2022-09-09T11:13:17;3.33;;;1.00;;
40981;SDS011;26708;50.304;19.028;2022-09-09T11:16:33;1.73;;;0.85;;
40981;SDS011;26708;50.304;19.028;2022-09-09T11:19:45;1.67;;;0.70;;
40981;SDS011;26708;50.304;19.028;2022-09-09T11:22:48;2.95;;;0.90;;
40981;SDS011;26708;50.304;19.028;2022-09-09T11:25:59;1.77;;;0.80;;
40981;SDS011;26708;50.304;19.028;2022-09-09T11:29:18;2.00;;;0.93;;
40981;SDS011;26708;50.304;19.028;2022-09-09T11:39:05;2.40;;;1.70;;
40981;SDS011;26708;50.304;19.028;2022-09-09T11:46:15;2.00;;;0.80;;
40981;SDS011;26708;50.304;19.028;2022-09-09T11:49:39;1.98;;;0.82;;
40981;SDS011;26708;50.304;19.028;2022-09-09T11:52:45;2.63;;;1.00;;
40981;SDS011;26708;50.304;19.028;2022-09-09T11:56:10;1.52;;;0.90;;
40981;SDS011;26708;50.304;19.028;2022-09-09T11:59:30;1.00;;;0.77;;
40981;SDS011;26708;50.304;19.028;2022-09-09T12:02:32;2.28;;;0.70;;
40981;SDS011;26708;50.304;19.028;2022-09-09T12:05:41;2.95;;;1.08;;
40981;SDS011;26708;50.304;19.028;2022-09-09T12:08:47;4.18;;;0.98;;
40981;SDS011;26708;50.304;19.028;2022-09-09T12:11:53;2.30;;;1.30;;
40981;SDS011;26708;50.304;19.028;2022-09-09T12:18:14;1.58;;;0.77;;
40981;SDS011;26708;50.304;19.028;2022-09-09T12:21:46;2.10;;;0.90;;
40981;SDS011;26708;50.304;19.028;2022-09-09T12:24:54;0.82;;;0.60;;
40981;SDS011;26708;50.304;19.028;2022-09-09T12:28:14;5.00;;;1.15;;
40981;SDS011;26708;50.304;19.028;2022-09-09T12:31:17;3.90;;;1.05;;
40981;SDS011;26708;50.304;19.028;2022-09-09T12:37:41;3.22;;;1.17;;
40981;SDS011;26708;50.304;19.028;2022-09-09T12:40:53;2.65;;;0.70;;
40981;SDS011;26708;50.304;19.028;2022-09-09T12:44:06;0.77;;;0.70;;
40981;SDS011;26708;50.304;19.028;2022-09-09T12:47:10;1.15;;;0.80;;
40981;SDS011;26708;50.304;19.028;2022-09-09T12:50:16;2.70;;;1.10;;
40981;SDS011;26708;50.304;19.028;2022-09-09T12:53:22;3.38;;;1.08;;
40981;SDS011;26708;50.304;19.028;2022-09-09T12:56:28;2.28;;;1.48;;
40981;SDS011;26708;50.304;19.028;2022-09-09T12:59:36;3.25;;;0.90;;
40981;SDS011;26708;50.304;19.028;2022-09-09T13:05:57;5.35;;;0.90;;
40981;SDS011;26708;50.304;19.028;2022-09-09T13:09:11;2.15;;;1.00;;
40981;SDS011;26708;50.304;19.028;2022-09-09T13:12:18;4.28;;;0.90;;
40981;SDS011;26708;50.304;19.028;2022-09-09T13:15:23;1.20;;;0.90;;
40981;SDS011;26708;50.304;19.028;2022-09-09T13:18:31;1.95;;;0.90;;
40981;SDS011;26708;50.304;19.028;2022-09-09T13:21:38;2.38;;;0.95;;
40981;SDS011;26708;50.304;19.028;2022-09-09T13:24:41;2.50;;;0.90;;
40981;SDS011;26708;50.304;19.028;2022-09-09T13:27:51;2.45;;;0.68;;
40981;SDS011;26708;50.304;19.028;2022-09-09T13:34:13;2.30;;;0.90;;
40981;SDS011;26708;50.304;19.028;2022-09-09T13:37:37;2.42;;;0.98;;
40981;SDS011;26708;50.304;19.028;2022-09-09T13:40:51;6.03;;;1.27;;
40981;SDS011;26708;50.304;19.028;2022-09-09T13:44:01;2.83;;;1.10;;
40981;SDS011;26708;50.304;19.028;2022-09-09T13:47:20;5.28;;;1.00;;
40981;SDS011;26708;50.304;19.028;2022-09-09T13:50:28;3.35;;;1.10;;
40981;SDS011;26708;50.304;19.028;2022-09-09T13:53:29;3.60;;;1.00;;
40981;SDS011;26708;50.304;19.028;2022-09-09T13:56:30;0.93;;;0.70;;
40981;SDS011;26708;50.304;19.028;2022-09-09T13:59:32;2.65;;;0.80;;
40981;SDS011;26708;50.304;19.028;2022-09-09T14:02:32;2.10;;;0.75;;
40981;SDS011;26708;50.304;19.028;2022-09-09T14:05:34;1.05;;;0.60;;
40981;SDS011;26708;50.304;19.028;2022-09-09T14:08:35;3.40;;;0.82;;
40981;SDS011;26708;50.304;19.028;2022-09-09T14:11:37;3.20;;;1.30;;
40981;SDS011;26708;50.304;19.028;2022-09-09T14:14:38;3.08;;;1.40;;
40981;SDS011;26708;50.304;19.028;2022-09-09T14:17:39;5.32;;;0.85;;
40981;SDS011;26708;50.304;19.028;2022-09-09T14:20:40;2.25;;;0.98;;
40981;SDS011;26708;50.304;19.028;2022-09-09T14:23:41;3.13;;;0.80;;
40981;SDS011;26708;50.304;19.028;2022-09-09T14:31:20;4.88;;;0.90;;
40981;SDS011;26708;50.304;19.028;2022-09-09T14:34:21;4.93;;;0.85;;
40981;SDS011;26708;50.304;19.028;2022-09-09T14:37:23;1.58;;;0.90;;
40981;SDS011;26708;50.304;19.028;2022-09-09T14:40:24;2.42;;;0.88;;
40981;SDS011;26708;50.304;19.028;2022-09-09T14:48:04;4.38;;;1.30;;
40981;SDS011;26708;50.304;19.028;2022-09-09T14:51:12;1.83;;;0.90;;
40981;SDS011;26708;50.304;19.028;2022-09-09T14:54:14;3.13;;;1.90;;
40981;SDS011;26708;50.304;19.028;2022-09-09T14:57:15;1.42;;;1.02;;
40981;SDS011;26708;50.304;19.028;2022-09-09T15:00:15;3.70;;;1.08;;
40981;SDS011;26708;50.304;19.028;2022-09-09T15:03:16;3.53;;;1.70;;
40981;SDS011;26708;50.304;19.028;2022-09-09T15:06:17;7.13;;;1.33;;
40981;SDS011;26708;50.304;19.028;2022-09-09T15:09:19;2.75;;;1.17;;
40981;SDS011;26708;50.304;19.028;2022-09-09T15:12:20;1.83;;;1.25;;
40981;SDS011;26708;50.304;19.028;2022-09-09T15:15:21;4.47;;;1.13;;
40981;SDS011;26708;50.304;19.028;2022-09-09T15:18:22;2.78;;;1.00;;
40981;SDS011;26708;50.304;19.028;2022-09-09T15:21:24;2.50;;;0.95;;
40981;SDS011;26708;50.304;19.028;2022-09-09T15:24:26;3.20;;;1.10;;
40981;SDS011;26708;50.304;19.028;2022-09-09T15:27:27;3.60;;;1.50;;
40981;SDS011;26708;50.304;19.028;2022-09-09T15:30:28;2.25;;;1.27;;
40981;SDS011;26708;50.304;19.028;2022-09-09T15:33:28;3.92;;;1.13;;
40981;SDS011;26708;50.304;19.028;2022-09-09T15:36:30;2.78;;;0.90;;
40981;SDS011;26708;50.304;19.028;2022-09-09T15:39:33;1.00;;;0.90;;
40981;SDS011;26708;50.304;19.028;2022-09-09T15:42:34;1.95;;;0.88;;
40981;SDS011;26708;50.304;19.028;2022-09-09T15:45:37;3.45;;;1.23;;
40981;SDS011;26708;50.304;19.028;2022-09-09T15:48:38;2.70;;;1.10;;
40981;SDS011;26708;50.304;19.028;2022-09-09T15:51:41;3.38;;;2.20;;
40981;SDS011;26708;50.304;19.028;2022-09-09T15:54:43;3.15;;;1.42;;
40981;SDS011;26708;50.304;19.028;2022-09-09T15:57:45;3.67;;;1.17;;
40981;SDS011;26708;50.304;19.028;2022-09-09T16:00:46;2.95;;;1.20;;
40981;SDS011;26708;50.304;19.028;2022-09-09T16:03:48;4.30;;;1.85;;
40981;SDS011;26708;50.304;19.028;2022-09-09T16:06:50;3.35;;;1.13;;
40981;SDS011;26708;50.304;19.028;2022-09-09T16:09:52;4.60;;;1.00;;
40981;SDS011;26708;50.304;19.028;2022-09-09T16:12:53;4.63;;;1.25;;
40981;SDS011;26708;50.304;19.028;2022-09-09T16:15:54;5.05;;;1.40;;
40981;SDS011;26708;50.304;19.028;2022-09-09T16:18:58;5.20;;;1.55;;
40981;SDS011;26708;50.304;19.028;2022-09-09T16:22:00;8.68;;;2.65;;
40981;SDS011;26708;50.304;19.028;2022-09-09T16:25:02;4.88;;;1.60;;
40981;SDS011;26708;50.304;19.028;2022-09-09T16:28:04;2.28;;;1.70;;
40981;SDS011;26708;50.304;19.028;2022-09-09T16:31:08;5.32;;;1.40;;
40981;SDS011;26708;50.304;19.028;2022-09-09T16:34:11;3.90;;;1.50;;
40981;SDS011;26708;50.304;19.028;2022-09-09T16:37:12;4.95;;;1.70;;
40981;SDS011;26708;50.304;19.028;2022-09-09T16:40:13;74.45;;;4.63;;
40981;SDS011;26708;50.304;19.028;2022-09-09T16:43:14;3.83;;;1.70;;
40981;SDS011;26708;50.304;19.028;2022-09-09T16:46:15;3.95;;;2.40;;
40981;SDS011;26708;50.304;19.028;2022-09-09T16:49:18;4.70;;;2.83;;
40981;SDS011;26708;50.304;19.028;2022-09-09T16:52:19;6.10;;;3.28;;
40981;SDS011;26708;50.304;19.028;2022-09-09T16:55:19;15.00;;;2.88;;
40981;SDS011;26708;50.304;19.028;2022-09-09T16:58:20;4.25;;;2.05;;
40981;SDS011;26708;50.304;19.028;2022-09-09T17:01:24;7.60;;;2.40;;
40981;SDS011;26708;50.304;19.028;2022-09-09T17:04:26;4.30;;;2.33;;
40981;SDS011;26708;50.304;19.028;2022-09-09T17:07:28;8.98;;;2.40;;
40981;SDS011;26708;50.304;19.028;2022-09-09T17:10:29;4.60;;;2.40;;
40981;SDS011;26708;50.304;19.028;2022-09-09T17:13:31;6.35;;;2.50;;
40981;SDS011;26708;50.304;19.028;2022-09-09T17:16:33;7.28;;;2.55;;
40981;SDS011;26708;50.304;19.028;2022-09-09T17:19:39;6.93;;;2.47;;
40981;SDS011;26708;50.304;19.028;2022-09-09T17:22:40;11.20;;;4.68;;
40981;SDS011;26708;50.304;19.028;2022-09-09T17:25:41;7.53;;;3.30;;
40981;SDS011;26708;50.304;19.028;2022-09-09T17:28:44;5.18;;;3.08;;
40981;SDS011;26708;50.304;19.028;2022-09-09T17:31:45;11.32;;;4.45;;
40981;SDS011;26708;50.304;19.028;2022-09-09T17:34:47;6.65;;;3.17;;
40981;SDS011;26708;50.304;19.028;2022-09-09T17:37:50;7.57;;;2.75;;
40981;SDS011;26708;50.304;19.028;2022-09-09T17:41:00;7.35;;;2.75;;
40981;SDS011;26708;50.304;19.028;2022-09-09T17:44:02;5.53;;;2.92;;
40981;SDS011;26708;50.304;19.028;2022-09-09T17:47:04;8.98;;;4.47;;
40981;SDS011;26708;50.304;19.028;2022-09-09T17:50:06;15.23;;;4.78;;
40981;SDS011;26708;50.304;19.028;2022-09-09T17:53:08;7.97;;;4.07;;
40981;SDS011;26708;50.304;19.028;2022-09-09T17:56:10;10.25;;;4.30;;
40981;SDS011;26708;50.304;19.028;2022-09-09T17:59:13;9.43;;;4.60;;
40981;SDS011;26708;50.304;19.028;2022-09-09T18:02:15;11.45;;;4.38;;
40981;SDS011;26708;50.304;19.028;2022-09-09T18:05:17;11.27;;;4.38;;
40981;SDS011;26708;50.304;19.028;2022-09-09T18:08:20;20.65;;;9.73;;
40981;SDS011;26708;50.304;19.028;2022-09-09T18:11:23;18.95;;;11.10;;
40981;SDS011;26708;50.304;19.028;2022-09-09T18:14:26;18.67;;;10.57;;
40981;SDS011;26708;50.304;19.028;2022-09-09T18:17:30;20.40;;;11.80;;
40981;SDS011;26708;50.304;19.028;2022-09-09T18:20:31;21.70;;;12.02;;
40981;SDS011;26708;50.304;19.028;2022-09-09T18:23:34;23.58;;;14.35;;
40981;SDS011;26708;50.304;19.028;2022-09-09T18:26:36;23.15;;;12.05;;
40981;SDS011;26708;50.304;19.028;2022-09-09T18:29:39;19.92;;;9.48;;
40981;SDS011;26708;50.304;19.028;2022-09-09T18:32:39;13.90;;;8.07;;
40981;SDS011;26708;50.304;19.028;2022-09-09T18:35:40;13.70;;;7.63;;
40981;SDS011;26708;50.304;19.028;2022-09-09T18:38:41;10.05;;;5.20;;
40981;SDS011;26708;50.304;19.028;2022-09-09T18:41:44;8.70;;;4.97;;
40981;SDS011;26708;50.304;19.028;2022-09-09T18:44:47;10.32;;;4.90;;
40981;SDS011;26708;50.304;19.028;2022-09-09T18:47:47;9.27;;;4.93;;
40981;SDS011;26708;50.304;19.028;2022-09-09T18:50:48;8.70;;;4.28;;
40981;SDS011;26708;50.304;19.028;2022-09-09T18:53:52;9.00;;;5.07;;
40981;SDS011;26708;50.304;19.028;2022-09-09T18:56:54;9.27;;;4.68;;
40981;SDS011;26708;50.304;19.028;2022-09-09T18:59:55;8.00;;;5.22;;
40981;SDS011;26708;50.304;19.028;2022-09-09T19:02:56;9.90;;;5.57;;
40981;SDS011;26708;50.304;19.028;2022-09-09T19:06:01;10.27;;;6.50;;
40981;SDS011;26708;50.304;19.028;2022-09-09T19:09:03;10.02;;;5.88;;
40981;SDS011;26708;50.304;19.028;2022-09-09T19:12:04;14.65;;;7.70;;
40981;SDS011;26708;50.304;19.028;2022-09-09T19:15:06;19.50;;;11.35;;
40981;SDS011;26708;50.304;19.028;2022-09-09T19:18:07;12.50;;;6.97;;
40981;SDS011;26708;50.304;19.028;2022-09-09T19:21:08;13.02;;;8.20;;
40981;SDS011;26708;50.304;19.028;2022-09-09T19:24:18;10.90;;;7.07;;
40981;SDS011;26708;50.304;19.028;2022-09-09T19:27:23;9.50;;;5.43;;
40981;SDS011;26708;50.304;19.028;2022-09-09T19:30:24;12.52;;;6.30;;
40981;SDS011;26708;50.304;19.028;2022-09-09T19:33:26;10.63;;;6.38;;
40981;SDS011;26708;50.304;19.028;2022-09-09T19:36:27;12.40;;;5.60;;
40981;SDS011;26708;50.304;19.028;2022-09-09T19:39:28;11.15;;;6.10;;
40981;SDS011;26708;50.304;19.028;2022-09-09T19:42:29;10.68;;;5.68;;
40981;SDS011;26708;50.304;19.028;2022-09-09T19:45:31;11.52;;;6.10;;
40981;SDS011;26708;50.304;19.028;2022-09-09T19:48:32;12.05;;;6.60;;
40981;SDS011;26708;50.304;19.028;2022-09-09T19:51:35;9.77;;;6.70;;
40981;SDS011;26708;50.304;19.028;2022-09-09T19:54:36;12.40;;;6.55;;
40981;SDS011;26708;50.304;19.028;2022-09-09T19:57:37;11.98;;;5.78;;
40981;SDS011;26708;50.304;19.028;2022-09-09T20:00:37;9.43;;;5.90;;
40981;SDS011;26708;50.304;19.028;2022-09-09T20:03:39;14.63;;;5.68;;
40981;SDS011;26708;50.304;19.028;2022-09-09T20:06:42;14.25;;;5.57;;
40981;SDS011;26708;50.304;19.028;2022-09-09T20:09:43;10.60;;;5.55;;
40981;SDS011;26708;50.304;19.028;2022-09-09T20:12:44;8.30;;;5.40;;
40981;SDS011;26708;50.304;19.028;2022-09-09T20:15:45;8.65;;;5.30;;
40981;SDS011;26708;50.304;19.028;2022-09-09T20:18:56;13.02;;;5.57;;
40981;SDS011;26708;50.304;19.028;2022-09-09T20:22:00;13.23;;;6.63;;
40981;SDS011;26708;50.304;19.028;2022-09-09T20:25:01;14.25;;;6.30;;
40981;SDS011;26708;50.304;19.028;2022-09-09T20:28:02;14.77;;;7.03;;
40981;SDS011;26708;50.304;19.028;2022-09-09T20:31:04;12.90;;;6.72;;